sensor_id;sensor_type;location;lat;lon;timestamp;P1;durP1;ratioP1;P2;durP2;ratioP2
44328;SDS011;30039;51.462;6.892;2023-09-07T00:02:31;7.05;;;3.72;;
44328;SDS011;30039;51.462;6.892;2023-09-07T00:05:16;5.90;;;3.75;;
44328;SDS011;30039;51.462;6.892;2023-09-07T00:08:02;7.63;;;4.03;;
44328;SDS011;30039;51.462;6.892;2023-09-07T00:10:48;6.15;;;3.50;;
44328;SDS011;30039;51.462;6.892;2023-09-07T00:13:33;8.90;;;4.00;;
44328;SDS011;30039;51.462;6.892;2023-09-07T00:16:19;5.80;;;3.50;;
44328;SDS011;30039;51.462;6.892;2023-09-07T00:19:05;6.82;;;4.22;;
44328;SDS011;30039;51.462;6.892;2023-09-07T00:21:51;5.75;;;2.85;;
44328;SDS011;30039;51.462;6.892;2023-09-07T00:24:37;5.03;;;3.33;;
44328;SDS011;30039;51.462;6.892;2023-09-07T00:27:22;5.47;;;3.42;;
44328;SDS011;30039;51.462;6.892;2023-09-07T00:30:08;4.10;;;2.75;;
44328;SDS011;30039;51.462;6.892;2023-09-07T00:32:54;5.90;;;3.05;;
44328;SDS011;30039;51.462;6.892;2023-09-07T00:35:40;5.70;;;3.15;;
44328;SDS011;30039;51.462;6.892;2023-09-07T00:38:25;4.32;;;2.80;;
44328;SDS011;30039;51.462;6.892;2023-09-07T00:41:12;6.18;;;3.20;;
44328;SDS011;30039;51.462;6.892;2023-09-07T00:43:58;6.18;;;3.20;;
44328;SDS011;30039;51.462;6.892;2023-09-07T00:46:44;5.50;;;3.40;;
44328;SDS011;30039;51.462;6.892;2023-09-07T00:49:32;4.28;;;2.90;;
44328;SDS011;30039;51.462;6.892;2023-09-07T00:52:18;8.43;;;3.03;;
44328;SDS011;30039;51.462;6.892;2023-09-07T00:55:04;4.95;;;2.92;;
44328;SDS011;30039;51.462;6.892;2023-09-07T00:57:50;4.82;;;3.10;;
44328;SDS011;30039;51.462;6.892;2023-09-07T01:00:36;3.85;;;2.70;;
44328;SDS011;30039;51.462;6.892;2023-09-07T01:03:21;4.95;;;2.90;;
44328;SDS011;30039;51.462;6.892;2023-09-07T01:06:07;4.30;;;2.78;;
44328;SDS011;30039;51.462;6.892;2023-09-07T01:08:57;5.63;;;3.17;;
44328;SDS011;30039;51.462;6.892;2023-09-07T01:11:46;5.70;;;3.00;;
44328;SDS011;30039;51.462;6.892;2023-09-07T01:14:31;5.57;;;3.08;;
44328;SDS011;30039;51.462;6.892;2023-09-07T01:17:17;4.60;;;2.75;;
44328;SDS011;30039;51.462;6.892;2023-09-07T01:20:04;4.13;;;2.80;;
44328;SDS011;30039;51.462;6.892;2023-09-07T01:22:52;4.72;;;3.00;;
44328;SDS011;30039;51.462;6.892;2023-09-07T01:25:39;4.13;;;2.75;;
44328;SDS011;30039;51.462;6.892;2023-09-07T01:28:28;4.50;;;2.85;;
44328;SDS011;30039;51.462;6.892;2023-09-07T01:31:14;5.25;;;3.10;;
44328;SDS011;30039;51.462;6.892;2023-09-07T01:34:01;4.20;;;2.88;;
44328;SDS011;30039;51.462;6.892;2023-09-07T01:36:46;4.22;;;3.22;;
44328;SDS011;30039;51.462;6.892;2023-09-07T01:39:32;5.75;;;3.10;;
44328;SDS011;30039;51.462;6.892;2023-09-07T01:42:17;4.05;;;2.85;;
44328;SDS011;30039;51.462;6.892;2023-09-07T01:45:03;5.75;;;2.75;;
44328;SDS011;30039;51.462;6.892;2023-09-07T01:47:49;5.75;;;2.70;;
44328;SDS011;30039;51.462;6.892;2023-09-07T01:50:35;4.65;;;2.83;;
44328;SDS011;30039;51.462;6.892;2023-09-07T01:53:20;4.25;;;2.65;;
44328;SDS011;30039;51.462;6.892;2023-09-07T01:56:06;4.78;;;3.00;;
44328;SDS011;30039;51.462;6.892;2023-09-07T01:58:52;5.50;;;2.92;;
44328;SDS011;30039;51.462;6.892;2023-09-07T02:01:37;4.47;;;2.85;;
44328;SDS011;30039;51.462;6.892;2023-09-07T02:04:24;6.22;;;2.67;;
44328;SDS011;30039;51.462;6.892;2023-09-07T02:07:09;4.88;;;2.83;;
44328;SDS011;30039;51.462;6.892;2023-09-07T02:09:55;3.70;;;2.90;;
44328;SDS011;30039;51.462;6.892;2023-09-07T02:12:41;5.32;;;3.15;;
44328;SDS011;30039;51.462;6.892;2023-09-07T02:15:26;6.38;;;2.78;;
44328;SDS011;30039;51.462;6.892;2023-09-07T02:18:12;6.15;;;3.00;;
44328;SDS011;30039;51.462;6.892;2023-09-07T02:21:04;12.00;;;3.10;;
44328;SDS011;30039;51.462;6.892;2023-09-07T02:23:49;3.95;;;2.58;;
44328;SDS011;30039;51.462;6.892;2023-09-07T02:26:35;5.13;;;2.70;;
44328;SDS011;30039;51.462;6.892;2023-09-07T02:29:21;6.47;;;3.13;;
44328;SDS011;30039;51.462;6.892;2023-09-07T02:32:06;5.13;;;2.78;;
44328;SDS011;30039;51.462;6.892;2023-09-07T02:34:52;7.10;;;2.90;;
44328;SDS011;30039;51.462;6.892;2023-09-07T02:37:38;5.18;;;2.78;;
44328;SDS011;30039;51.462;6.892;2023-09-07T02:40:23;8.25;;;2.72;;
44328;SDS011;30039;51.462;6.892;2023-09-07T02:43:12;5.88;;;3.05;;
44328;SDS011;30039;51.462;6.892;2023-09-07T02:45:58;6.97;;;2.97;;
44328;SDS011;30039;51.462;6.892;2023-09-07T02:48:44;3.40;;;2.70;;
44328;SDS011;30039;51.462;6.892;2023-09-07T02:51:30;6.03;;;2.97;;
44328;SDS011;30039;51.462;6.892;2023-09-07T02:54:16;3.95;;;2.80;;
44328;SDS011;30039;51.462;6.892;2023-09-07T02:57:01;4.40;;;2.70;;
44328;SDS011;30039;51.462;6.892;2023-09-07T02:59:47;5.95;;;2.97;;
44328;SDS011;30039;51.462;6.892;2023-09-07T03:02:33;4.53;;;2.95;;
44328;SDS011;30039;51.462;6.892;2023-09-07T03:05:18;5.75;;;2.90;;
44328;SDS011;30039;51.462;6.892;2023-09-07T03:08:04;6.10;;;2.70;;
44328;SDS011;30039;51.462;6.892;2023-09-07T03:10:50;6.55;;;2.85;;
44328;SDS011;30039;51.462;6.892;2023-09-07T03:13:36;5.72;;;3.33;;
44328;SDS011;30039;51.462;6.892;2023-09-07T03:16:21;3.40;;;2.58;;
44328;SDS011;30039;51.462;6.892;2023-09-07T03:19:07;5.68;;;3.30;;
44328;SDS011;30039;51.462;6.892;2023-09-07T03:21:52;4.95;;;3.38;;
44328;SDS011;30039;51.462;6.892;2023-09-07T03:24:39;4.80;;;3.10;;
44328;SDS011;30039;51.462;6.892;2023-09-07T03:27:25;4.90;;;2.63;;
44328;SDS011;30039;51.462;6.892;2023-09-07T03:30:10;6.53;;;3.28;;
44328;SDS011;30039;51.462;6.892;2023-09-07T03:32:56;7.47;;;3.30;;
44328;SDS011;30039;51.462;6.892;2023-09-07T03:35:42;7.40;;;3.17;;
44328;SDS011;30039;51.462;6.892;2023-09-07T03:38:27;4.35;;;2.95;;
44328;SDS011;30039;51.462;6.892;2023-09-07T03:41:13;4.70;;;3.55;;
44328;SDS011;30039;51.462;6.892;2023-09-07T03:43:58;6.82;;;3.05;;
44328;SDS011;30039;51.462;6.892;2023-09-07T03:46:44;4.47;;;2.78;;
44328;SDS011;30039;51.462;6.892;2023-09-07T03:49:30;5.90;;;3.38;;
44328;SDS011;30039;51.462;6.892;2023-09-07T03:52:15;6.95;;;3.22;;
44328;SDS011;30039;51.462;6.892;2023-09-07T03:55:01;5.28;;;3.08;;
44328;SDS011;30039;51.462;6.892;2023-09-07T03:57:47;6.50;;;3.83;;
44328;SDS011;30039;51.462;6.892;2023-09-07T04:00:32;4.80;;;3.30;;
44328;SDS011;30039;51.462;6.892;2023-09-07T04:03:18;5.90;;;3.70;;
44328;SDS011;30039;51.462;6.892;2023-09-07T04:06:03;6.50;;;3.50;;
44328;SDS011;30039;51.462;6.892;2023-09-07T04:08:50;5.78;;;3.70;;
44328;SDS011;30039;51.462;6.892;2023-09-07T04:11:35;4.80;;;3.20;;
44328;SDS011;30039;51.462;6.892;2023-09-07T04:14:21;10.23;;;3.33;;
44328;SDS011;30039;51.462;6.892;2023-09-07T04:17:06;6.25;;;3.47;;
44328;SDS011;30039;51.462;6.892;2023-09-07T04:19:52;7.72;;;3.30;;
44328;SDS011;30039;51.462;6.892;2023-09-07T04:22:38;4.95;;;3.22;;
44328;SDS011;30039;51.462;6.892;2023-09-07T04:25:24;5.22;;;3.03;;
44328;SDS011;30039;51.462;6.892;2023-09-07T04:28:11;5.28;;;3.65;;
44328;SDS011;30039;51.462;6.892;2023-09-07T04:30:56;5.05;;;3.47;;
44328;SDS011;30039;51.462;6.892;2023-09-07T04:33:42;6.93;;;3.35;;
44328;SDS011;30039;51.462;6.892;2023-09-07T04:36:28;5.18;;;3.17;;
44328;SDS011;30039;51.462;6.892;2023-09-07T04:39:13;8.40;;;3.40;;
44328;SDS011;30039;51.462;6.892;2023-09-07T04:42:02;7.63;;;3.63;;
44328;SDS011;30039;51.462;6.892;2023-09-07T04:44:47;4.85;;;3.20;;
44328;SDS011;30039;51.462;6.892;2023-09-07T04:47:33;4.88;;;3.50;;
44328;SDS011;30039;51.462;6.892;2023-09-07T04:50:19;6.38;;;3.45;;
44328;SDS011;30039;51.462;6.892;2023-09-07T04:53:04;6.03;;;3.65;;
44328;SDS011;30039;51.462;6.892;2023-09-07T04:55:50;7.30;;;3.60;;
44328;SDS011;30039;51.462;6.892;2023-09-07T04:58:36;7.32;;;3.65;;
44328;SDS011;30039;51.462;6.892;2023-09-07T05:01:21;5.82;;;3.53;;
44328;SDS011;30039;51.462;6.892;2023-09-07T05:04:07;6.10;;;3.50;;
44328;SDS011;30039;51.462;6.892;2023-09-07T05:06:53;8.43;;;3.83;;
44328;SDS011;30039;51.462;6.892;2023-09-07T05:09:38;8.35;;;3.65;;
44328;SDS011;30039;51.462;6.892;2023-09-07T05:12:25;10.25;;;3.25;;
44328;SDS011;30039;51.462;6.892;2023-09-07T05:15:11;8.13;;;4.00;;
44328;SDS011;30039;51.462;6.892;2023-09-07T05:17:57;6.38;;;3.40;;
44328;SDS011;30039;51.462;6.892;2023-09-07T05:20:42;6.15;;;3.60;;
44328;SDS011;30039;51.462;6.892;2023-09-07T05:23:30;5.47;;;3.58;;
44328;SDS011;30039;51.462;6.892;2023-09-07T05:26:20;7.03;;;3.58;;
44328;SDS011;30039;51.462;6.892;2023-09-07T05:29:05;6.18;;;3.58;;
44328;SDS011;30039;51.462;6.892;2023-09-07T05:31:51;8.30;;;3.63;;
44328;SDS011;30039;51.462;6.892;2023-09-07T05:34:36;6.60;;;3.53;;
44328;SDS011;30039;51.462;6.892;2023-09-07T05:37:22;6.90;;;3.90;;
44328;SDS011;30039;51.462;6.892;2023-09-07T05:40:08;7.95;;;3.65;;
44328;SDS011;30039;51.462;6.892;2023-09-07T05:42:54;6.25;;;3.67;;
44328;SDS011;30039;51.462;6.892;2023-09-07T05:45:40;5.22;;;3.40;;
44328;SDS011;30039;51.462;6.892;2023-09-07T05:48:26;6.97;;;3.50;;
44328;SDS011;30039;51.462;6.892;2023-09-07T05:51:11;8.32;;;3.65;;
44328;SDS011;30039;51.462;6.892;2023-09-07T05:53:57;8.10;;;3.97;;
44328;SDS011;30039;51.462;6.892;2023-09-07T05:56:43;5.55;;;3.58;;
44328;SDS011;30039;51.462;6.892;2023-09-07T05:59:29;6.65;;;3.60;;
44328;SDS011;30039;51.462;6.892;2023-09-07T06:02:14;6.47;;;3.30;;
44328;SDS011;30039;51.462;6.892;2023-09-07T06:05:00;5.68;;;3.45;;
44328;SDS011;30039;51.462;6.892;2023-09-07T06:07:45;5.28;;;3.58;;
44328;SDS011;30039;51.462;6.892;2023-09-07T06:10:31;7.07;;;3.70;;
44328;SDS011;30039;51.462;6.892;2023-09-07T06:13:17;5.15;;;3.75;;
44328;SDS011;30039;51.462;6.892;2023-09-07T06:16:03;7.32;;;3.70;;
44328;SDS011;30039;51.462;6.892;2023-09-07T06:18:48;7.78;;;3.53;;
44328;SDS011;30039;51.462;6.892;2023-09-07T06:21:34;7.57;;;3.67;;
44328;SDS011;30039;51.462;6.892;2023-09-07T06:24:20;7.65;;;3.70;;
44328;SDS011;30039;51.462;6.892;2023-09-07T06:27:06;7.32;;;3.28;;
44328;SDS011;30039;51.462;6.892;2023-09-07T06:29:52;10.02;;;3.60;;
44328;SDS011;30039;51.462;6.892;2023-09-07T06:32:38;7.03;;;3.45;;
44328;SDS011;30039;51.462;6.892;2023-09-07T06:35:24;5.70;;;3.78;;
44328;SDS011;30039;51.462;6.892;2023-09-07T06:38:09;4.80;;;3.55;;
44328;SDS011;30039;51.462;6.892;2023-09-07T06:40:55;10.02;;;4.20;;
44328;SDS011;30039;51.462;6.892;2023-09-07T06:43:40;10.73;;;3.63;;
44328;SDS011;30039;51.462;6.892;2023-09-07T06:46:26;6.13;;;3.60;;
44328;SDS011;30039;51.462;6.892;2023-09-07T06:49:12;7.10;;;3.63;;
44328;SDS011;30039;51.462;6.892;2023-09-07T06:51:57;5.90;;;3.45;;
44328;SDS011;30039;51.462;6.892;2023-09-07T06:54:43;9.10;;;3.58;;
44328;SDS011;30039;51.462;6.892;2023-09-07T06:57:29;6.93;;;3.33;;
44328;SDS011;30039;51.462;6.892;2023-09-07T07:00:14;8.13;;;3.83;;
44328;SDS011;30039;51.462;6.892;2023-09-07T07:03:00;9.98;;;3.40;;
44328;SDS011;30039;51.462;6.892;2023-09-07T07:05:46;6.38;;;3.83;;
44328;SDS011;30039;51.462;6.892;2023-09-07T07:08:31;4.65;;;3.10;;
44328;SDS011;30039;51.462;6.892;2023-09-07T07:11:17;6.95;;;2.90;;
44328;SDS011;30039;51.462;6.892;2023-09-07T07:14:02;4.55;;;3.20;;
44328;SDS011;30039;51.462;6.892;2023-09-07T07:16:48;6.70;;;3.08;;
44328;SDS011;30039;51.462;6.892;2023-09-07T07:19:34;6.95;;;3.70;;
44328;SDS011;30039;51.462;6.892;2023-09-07T07:22:19;6.93;;;3.08;;
44328;SDS011;30039;51.462;6.892;2023-09-07T07:25:05;5.80;;;2.97;;
44328;SDS011;30039;51.462;6.892;2023-09-07T07:27:51;6.53;;;3.00;;
44328;SDS011;30039;51.462;6.892;2023-09-07T07:30:37;4.68;;;3.20;;
44328;SDS011;30039;51.462;6.892;2023-09-07T07:33:23;4.57;;;2.92;;
44328;SDS011;30039;51.462;6.892;2023-09-07T07:36:09;6.25;;;3.03;;
44328;SDS011;30039;51.462;6.892;2023-09-07T07:38:54;5.45;;;3.00;;
44328;SDS011;30039;51.462;6.892;2023-09-07T07:41:40;5.70;;;3.53;;
44328;SDS011;30039;51.462;6.892;2023-09-07T07:44:26;6.72;;;3.30;;
44328;SDS011;30039;51.462;6.892;2023-09-07T07:47:11;4.95;;;3.13;;
44328;SDS011;30039;51.462;6.892;2023-09-07T07:49:57;6.68;;;3.35;;
44328;SDS011;30039;51.462;6.892;2023-09-07T07:52:43;6.78;;;3.05;;
44328;SDS011;30039;51.462;6.892;2023-09-07T07:55:29;10.55;;;3.10;;
44328;SDS011;30039;51.462;6.892;2023-09-07T07:58:15;5.13;;;3.00;;
44328;SDS011;30039;51.462;6.892;2023-09-07T08:01:00;4.00;;;2.72;;
44328;SDS011;30039;51.462;6.892;2023-09-07T08:03:47;7.95;;;3.03;;
44328;SDS011;30039;51.462;6.892;2023-09-07T08:06:33;7.20;;;3.05;;
44328;SDS011;30039;51.462;6.892;2023-09-07T08:09:18;5.22;;;3.30;;
44328;SDS011;30039;51.462;6.892;2023-09-07T08:12:04;6.22;;;2.85;;
44328;SDS011;30039;51.462;6.892;2023-09-07T08:14:50;6.88;;;2.78;;
44328;SDS011;30039;51.462;6.892;2023-09-07T08:17:36;3.63;;;2.97;;
44328;SDS011;30039;51.462;6.892;2023-09-07T08:20:21;3.30;;;2.80;;
44328;SDS011;30039;51.462;6.892;2023-09-07T08:23:07;6.57;;;2.90;;
44328;SDS011;30039;51.462;6.892;2023-09-07T08:25:55;4.55;;;2.90;;
44328;SDS011;30039;51.462;6.892;2023-09-07T08:28:40;6.93;;;2.90;;
44328;SDS011;30039;51.462;6.892;2023-09-07T08:31:26;4.70;;;3.13;;
44328;SDS011;30039;51.462;6.892;2023-09-07T08:34:11;9.93;;;3.10;;
44328;SDS011;30039;51.462;6.892;2023-09-07T08:36:58;4.80;;;2.70;;
44328;SDS011;30039;51.462;6.892;2023-09-07T08:39:45;4.30;;;2.70;;
44328;SDS011;30039;51.462;6.892;2023-09-07T08:42:30;5.60;;;3.60;;
44328;SDS011;30039;51.462;6.892;2023-09-07T08:45:16;5.47;;;3.33;;
44328;SDS011;30039;51.462;6.892;2023-09-07T08:48:03;4.88;;;2.90;;
44328;SDS011;30039;51.462;6.892;2023-09-07T08:50:49;4.95;;;3.13;;
44328;SDS011;30039;51.462;6.892;2023-09-07T08:53:36;7.45;;;3.20;;
44328;SDS011;30039;51.462;6.892;2023-09-07T08:56:22;4.30;;;3.08;;
44328;SDS011;30039;51.462;6.892;2023-09-07T08:59:08;7.05;;;2.95;;
44328;SDS011;30039;51.462;6.892;2023-09-07T09:01:56;6.78;;;3.30;;
44328;SDS011;30039;51.462;6.892;2023-09-07T09:04:43;4.97;;;2.58;;
44328;SDS011;30039;51.462;6.892;2023-09-07T09:07:29;9.45;;;3.35;;
44328;SDS011;30039;51.462;6.892;2023-09-07T09:10:17;3.65;;;2.70;;
44328;SDS011;30039;51.462;6.892;2023-09-07T09:13:03;5.57;;;2.30;;
44328;SDS011;30039;51.462;6.892;2023-09-07T09:15:49;5.65;;;2.90;;
44328;SDS011;30039;51.462;6.892;2023-09-07T09:18:35;3.30;;;2.58;;
44328;SDS011;30039;51.462;6.892;2023-09-07T09:21:25;4.13;;;2.70;;
44328;SDS011;30039;51.462;6.892;2023-09-07T09:24:10;3.60;;;2.92;;
44328;SDS011;30039;51.462;6.892;2023-09-07T09:26:57;3.35;;;2.30;;
44328;SDS011;30039;51.462;6.892;2023-09-07T09:29:42;4.00;;;2.58;;
44328;SDS011;30039;51.462;6.892;2023-09-07T09:32:29;3.22;;;2.55;;
44328;SDS011;30039;51.462;6.892;2023-09-07T09:35:18;4.13;;;2.60;;
44328;SDS011;30039;51.462;6.892;2023-09-07T09:38:04;4.40;;;2.70;;
44328;SDS011;30039;51.462;6.892;2023-09-07T09:40:50;4.60;;;2.35;;
44328;SDS011;30039;51.462;6.892;2023-09-07T09:43:36;6.97;;;3.05;;
44328;SDS011;30039;51.462;6.892;2023-09-07T09:46:22;3.63;;;3.03;;
44328;SDS011;30039;51.462;6.892;2023-09-07T09:49:09;3.80;;;2.60;;
44328;SDS011;30039;51.462;6.892;2023-09-07T09:51:56;5.15;;;2.50;;
44328;SDS011;30039;51.462;6.892;2023-09-07T09:54:44;6.05;;;2.70;;
44328;SDS011;30039;51.462;6.892;2023-09-07T09:57:30;3.83;;;2.42;;
44328;SDS011;30039;51.462;6.892;2023-09-07T10:00:16;4.07;;;2.67;;
44328;SDS011;30039;51.462;6.892;2023-09-07T10:03:04;4.35;;;2.70;;
44328;SDS011;30039;51.462;6.892;2023-09-07T10:05:51;4.93;;;2.92;;
44328;SDS011;30039;51.462;6.892;2023-09-07T10:08:36;5.07;;;2.70;;
44328;SDS011;30039;51.462;6.892;2023-09-07T10:11:31;3.75;;;2.90;;
44328;SDS011;30039;51.462;6.892;2023-09-07T10:14:17;4.00;;;2.67;;
44328;SDS011;30039;51.462;6.892;2023-09-07T10:17:03;3.72;;;2.70;;
44328;SDS011;30039;51.462;6.892;2023-09-07T10:19:49;3.80;;;2.60;;
44328;SDS011;30039;51.462;6.892;2023-09-07T10:22:37;4.00;;;2.78;;
44328;SDS011;30039;51.462;6.892;2023-09-07T10:25:23;2.83;;;2.53;;
44328;SDS011;30039;51.462;6.892;2023-09-07T10:28:21;4.07;;;2.92;;
44328;SDS011;30039;51.462;6.892;2023-09-07T10:31:14;4.90;;;2.80;;
44328;SDS011;30039;51.462;6.892;2023-09-07T10:34:09;5.80;;;2.90;;
44328;SDS011;30039;51.462;6.892;2023-09-07T10:36:58;3.13;;;2.72;;
44328;SDS011;30039;51.462;6.892;2023-09-07T10:39:44;9.27;;;3.00;;
44328;SDS011;30039;51.462;6.892;2023-09-07T10:42:30;3.10;;;2.58;;
44328;SDS011;30039;51.462;6.892;2023-09-07T10:45:18;3.10;;;2.50;;
44328;SDS011;30039;51.462;6.892;2023-09-07T10:48:04;4.75;;;3.08;;
44328;SDS011;30039;51.462;6.892;2023-09-07T10:50:49;4.93;;;3.05;;
44328;SDS011;30039;51.462;6.892;2023-09-07T10:53:37;3.40;;;2.50;;
44328;SDS011;30039;51.462;6.892;2023-09-07T10:56:26;5.47;;;2.55;;
44328;SDS011;30039;51.462;6.892;2023-09-07T10:59:13;3.75;;;2.72;;
44328;SDS011;30039;51.462;6.892;2023-09-07T11:02:04;2.92;;;2.47;;
44328;SDS011;30039;51.462;6.892;2023-09-07T11:04:50;3.10;;;2.80;;
44328;SDS011;30039;51.462;6.892;2023-09-07T11:07:36;3.70;;;2.75;;
44328;SDS011;30039;51.462;6.892;2023-09-07T11:10:22;4.05;;;2.60;;
44328;SDS011;30039;51.462;6.892;2023-09-07T11:13:09;3.22;;;2.60;;
44328;SDS011;30039;51.462;6.892;2023-09-07T11:15:55;6.10;;;2.58;;
44328;SDS011;30039;51.462;6.892;2023-09-07T11:18:41;4.13;;;2.78;;
44328;SDS011;30039;51.462;6.892;2023-09-07T11:21:27;4.78;;;2.90;;
44328;SDS011;30039;51.462;6.892;2023-09-07T11:24:12;4.30;;;2.70;;
44328;SDS011;30039;51.462;6.892;2023-09-07T11:26:58;3.97;;;2.70;;
44328;SDS011;30039;51.462;6.892;2023-09-07T11:29:50;4.93;;;2.80;;
44328;SDS011;30039;51.462;6.892;2023-09-07T11:32:36;3.90;;;2.60;;
44328;SDS011;30039;51.462;6.892;2023-09-07T11:35:21;3.10;;;2.50;;
44328;SDS011;30039;51.462;6.892;2023-09-07T11:38:07;4.97;;;2.80;;
44328;SDS011;30039;51.462;6.892;2023-09-07T11:40:55;6.85;;;2.78;;
44328;SDS011;30039;51.462;6.892;2023-09-07T11:43:41;4.55;;;2.30;;
44328;SDS011;30039;51.462;6.892;2023-09-07T11:46:27;2.72;;;2.25;;
44328;SDS011;30039;51.462;6.892;2023-09-07T11:49:13;5.18;;;2.70;;
44328;SDS011;30039;51.462;6.892;2023-09-07T11:51:59;3.22;;;2.42;;
44328;SDS011;30039;51.462;6.892;2023-09-07T11:54:44;3.25;;;2.58;;
44328;SDS011;30039;51.462;6.892;2023-09-07T11:57:30;4.35;;;2.55;;
44328;SDS011;30039;51.462;6.892;2023-09-07T12:00:16;4.80;;;2.85;;
44328;SDS011;30039;51.462;6.892;2023-09-07T12:03:01;4.40;;;2.40;;
44328;SDS011;30039;51.462;6.892;2023-09-07T12:05:47;3.72;;;2.33;;
44328;SDS011;30039;51.462;6.892;2023-09-07T12:08:33;3.72;;;2.55;;
44328;SDS011;30039;51.462;6.892;2023-09-07T12:11:19;3.00;;;2.20;;
44328;SDS011;30039;51.462;6.892;2023-09-07T12:14:04;2.67;;;2.20;;
44328;SDS011;30039;51.462;6.892;2023-09-07T12:16:51;3.38;;;2.40;;
44328;SDS011;30039;51.462;6.892;2023-09-07T12:19:36;3.70;;;2.65;;
44328;SDS011;30039;51.462;6.892;2023-09-07T12:22:22;4.50;;;2.58;;
44328;SDS011;30039;51.462;6.892;2023-09-07T12:25:08;3.13;;;2.30;;
44328;SDS011;30039;51.462;6.892;2023-09-07T12:27:56;3.55;;;2.70;;
44328;SDS011;30039;51.462;6.892;2023-09-07T12:30:42;3.13;;;2.28;;
44328;SDS011;30039;51.462;6.892;2023-09-07T12:33:29;3.55;;;2.58;;
44328;SDS011;30039;51.462;6.892;2023-09-07T12:36:15;7.10;;;2.70;;
44328;SDS011;30039;51.462;6.892;2023-09-07T12:39:01;4.32;;;2.58;;
44328;SDS011;30039;51.462;6.892;2023-09-07T12:41:47;3.38;;;2.70;;
44328;SDS011;30039;51.462;6.892;2023-09-07T12:44:32;4.28;;;2.70;;
44328;SDS011;30039;51.462;6.892;2023-09-07T12:47:18;4.22;;;2.53;;
44328;SDS011;30039;51.462;6.892;2023-09-07T12:50:03;3.60;;;2.40;;
44328;SDS011;30039;51.462;6.892;2023-09-07T12:52:50;3.75;;;2.55;;
44328;SDS011;30039;51.462;6.892;2023-09-07T12:55:36;5.15;;;2.75;;
44328;SDS011;30039;51.462;6.892;2023-09-07T12:58:21;3.97;;;2.80;;
44328;SDS011;30039;51.462;6.892;2023-09-07T13:01:08;4.28;;;2.42;;
44328;SDS011;30039;51.462;6.892;2023-09-07T13:03:55;3.92;;;2.75;;
44328;SDS011;30039;51.462;6.892;2023-09-07T13:06:41;2.92;;;2.53;;
44328;SDS011;30039;51.462;6.892;2023-09-07T13:09:26;4.13;;;2.80;;
44328;SDS011;30039;51.462;6.892;2023-09-07T13:12:12;4.32;;;2.92;;
44328;SDS011;30039;51.462;6.892;2023-09-07T13:14:58;3.25;;;2.70;;
44328;SDS011;30039;51.462;6.892;2023-09-07T13:17:43;6.18;;;3.28;;
44328;SDS011;30039;51.462;6.892;2023-09-07T13:20:29;5.32;;;3.20;;
44328;SDS011;30039;51.462;6.892;2023-09-07T13:23:15;6.40;;;3.03;;
44328;SDS011;30039;51.462;6.892;2023-09-07T13:26:01;5.85;;;3.05;;
44328;SDS011;30039;51.462;6.892;2023-09-07T13:28:46;5.25;;;3.33;;
44328;SDS011;30039;51.462;6.892;2023-09-07T13:31:32;4.45;;;2.90;;
44328;SDS011;30039;51.462;6.892;2023-09-07T13:34:18;3.35;;;2.95;;
44328;SDS011;30039;51.462;6.892;2023-09-07T13:37:03;4.53;;;2.85;;
44328;SDS011;30039;51.462;6.892;2023-09-07T13:39:49;3.47;;;2.80;;
44328;SDS011;30039;51.462;6.892;2023-09-07T13:42:36;5.18;;;3.20;;
44328;SDS011;30039;51.462;6.892;2023-09-07T13:45:25;7.15;;;3.00;;
44328;SDS011;30039;51.462;6.892;2023-09-07T13:48:12;7.30;;;3.45;;
44328;SDS011;30039;51.462;6.892;2023-09-07T13:50:59;5.05;;;3.20;;
44328;SDS011;30039;51.462;6.892;2023-09-07T13:53:45;4.05;;;3.05;;
44328;SDS011;30039;51.462;6.892;2023-09-07T13:56:31;5.38;;;3.00;;
44328;SDS011;30039;51.462;6.892;2023-09-07T13:59:17;6.78;;;3.70;;
44328;SDS011;30039;51.462;6.892;2023-09-07T14:02:02;3.10;;;2.70;;
44328;SDS011;30039;51.462;6.892;2023-09-07T14:04:48;4.05;;;2.80;;
44328;SDS011;30039;51.462;6.892;2023-09-07T14:07:35;6.13;;;3.53;;
44328;SDS011;30039;51.462;6.892;2023-09-07T14:10:20;4.78;;;3.40;;
44328;SDS011;30039;51.462;6.892;2023-09-07T14:13:06;6.63;;;3.30;;
44328;SDS011;30039;51.462;6.892;2023-09-07T14:15:51;4.20;;;3.00;;
44328;SDS011;30039;51.462;6.892;2023-09-07T14:18:38;4.30;;;3.17;;
44328;SDS011;30039;51.462;6.892;2023-09-07T14:21:25;7.63;;;3.20;;
44328;SDS011;30039;51.462;6.892;2023-09-07T14:24:12;5.15;;;3.47;;
44328;SDS011;30039;51.462;6.892;2023-09-07T14:26:57;4.75;;;3.20;;
44328;SDS011;30039;51.462;6.892;2023-09-07T14:29:43;6.45;;;3.55;;
44328;SDS011;30039;51.462;6.892;2023-09-07T14:32:30;6.63;;;3.35;;
44328;SDS011;30039;51.462;6.892;2023-09-07T14:35:17;6.13;;;3.22;;
44328;SDS011;30039;51.462;6.892;2023-09-07T14:38:02;4.68;;;3.38;;
44328;SDS011;30039;51.462;6.892;2023-09-07T14:40:48;6.35;;;2.92;;
44328;SDS011;30039;51.462;6.892;2023-09-07T14:43:35;4.43;;;3.50;;
44328;SDS011;30039;51.462;6.892;2023-09-07T14:46:21;4.68;;;3.22;;
44328;SDS011;30039;51.462;6.892;2023-09-07T14:49:08;5.03;;;3.50;;
44328;SDS011;30039;51.462;6.892;2023-09-07T14:51:54;3.92;;;3.30;;
44328;SDS011;30039;51.462;6.892;2023-09-07T14:54:40;4.35;;;2.90;;
44328;SDS011;30039;51.462;6.892;2023-09-07T14:57:27;4.32;;;3.20;;
44328;SDS011;30039;51.462;6.892;2023-09-07T15:00:14;7.03;;;3.67;;
44328;SDS011;30039;51.462;6.892;2023-09-07T15:03:01;5.07;;;3.13;;
44328;SDS011;30039;51.462;6.892;2023-09-07T15:05:52;5.38;;;3.25;;
44328;SDS011;30039;51.462;6.892;2023-09-07T15:08:40;4.40;;;3.55;;
44328;SDS011;30039;51.462;6.892;2023-09-07T15:11:28;6.18;;;3.42;;
44328;SDS011;30039;51.462;6.892;2023-09-07T15:14:15;4.22;;;3.42;;
44328;SDS011;30039;51.462;6.892;2023-09-07T15:17:00;7.93;;;3.40;;
44328;SDS011;30039;51.462;6.892;2023-09-07T15:19:46;6.00;;;3.58;;
44328;SDS011;30039;51.462;6.892;2023-09-07T15:22:32;5.03;;;3.28;;
44328;SDS011;30039;51.462;6.892;2023-09-07T15:25:18;4.65;;;3.38;;
44328;SDS011;30039;51.462;6.892;2023-09-07T15:28:04;6.03;;;3.03;;
44328;SDS011;30039;51.462;6.892;2023-09-07T15:30:54;4.45;;;3.17;;
44328;SDS011;30039;51.462;6.892;2023-09-07T15:33:39;6.90;;;3.30;;
44328;SDS011;30039;51.462;6.892;2023-09-07T15:36:25;4.95;;;3.30;;
44328;SDS011;30039;51.462;6.892;2023-09-07T15:39:11;6.20;;;3.58;;
44328;SDS011;30039;51.462;6.892;2023-09-07T15:41:56;6.65;;;3.40;;
44328;SDS011;30039;51.462;6.892;2023-09-07T15:44:42;6.03;;;3.10;;
44328;SDS011;30039;51.462;6.892;2023-09-07T15:47:30;6.15;;;3.40;;
44328;SDS011;30039;51.462;6.892;2023-09-07T15:50:16;5.80;;;3.03;;
44328;SDS011;30039;51.462;6.892;2023-09-07T15:53:02;4.28;;;3.15;;
44328;SDS011;30039;51.462;6.892;2023-09-07T15:55:49;5.47;;;3.42;;
44328;SDS011;30039;51.462;6.892;2023-09-07T15:58:34;4.53;;;3.00;;
44328;SDS011;30039;51.462;6.892;2023-09-07T16:01:20;4.53;;;2.95;;
44328;SDS011;30039;51.462;6.892;2023-09-07T16:04:05;4.38;;;3.20;;
44328;SDS011;30039;51.462;6.892;2023-09-07T16:06:51;5.13;;;3.63;;
44328;SDS011;30039;51.462;6.892;2023-09-07T16:09:37;5.35;;;2.95;;
44328;SDS011;30039;51.462;6.892;2023-09-07T16:12:23;4.70;;;3.22;;
44328;SDS011;30039;51.462;6.892;2023-09-07T16:15:08;7.78;;;2.83;;
44328;SDS011;30039;51.462;6.892;2023-09-07T16:17:54;4.15;;;3.10;;
44328;SDS011;30039;51.462;6.892;2023-09-07T16:20:40;6.00;;;3.05;;
44328;SDS011;30039;51.462;6.892;2023-09-07T16:23:26;4.50;;;2.45;;
44328;SDS011;30039;51.462;6.892;2023-09-07T16:26:12;4.60;;;2.92;;
44328;SDS011;30039;51.462;6.892;2023-09-07T16:28:58;5.47;;;3.25;;
44328;SDS011;30039;51.462;6.892;2023-09-07T16:31:44;5.05;;;2.83;;
44328;SDS011;30039;51.462;6.892;2023-09-07T16:34:30;5.40;;;3.17;;
44328;SDS011;30039;51.462;6.892;2023-09-07T16:37:16;4.07;;;2.92;;
44328;SDS011;30039;51.462;6.892;2023-09-07T16:40:02;4.63;;;2.90;;
44328;SDS011;30039;51.462;6.892;2023-09-07T16:42:48;6.35;;;2.88;;